createdAt,value
2022-09-28T00:01:11.701Z,76.91
2022-09-28T00:03:39.060Z,76.75
2022-09-28T00:06:08.362Z,77.06
2022-09-28T00:08:36.231Z,77.07
2022-09-28T00:11:04.383Z,77.10
2022-09-28T00:13:33.071Z,76.92
2022-09-28T00:16:14.249Z,76.93
2022-09-28T00:18:42.047Z,77.27
2022-09-28T00:21:18.483Z,77.10
2022-09-28T00:24:04.626Z,77.09
2022-09-28T00:26:33.164Z,77.16
2022-09-28T00:29:02.204Z,77.41
2022-09-28T00:31:32.929Z,77.41
2022-09-28T00:34:02.982Z,77.13
2022-09-28T00:36:31.461Z,77.45
2022-09-28T00:38:59.422Z,77.53
2022-09-28T00:41:28.192Z,77.66
2022-09-28T00:44:27.250Z,77.42
2022-09-28T00:46:57.416Z,77.64
2022-09-28T00:49:52.794Z,77.47
2022-09-28T00:52:31.425Z,77.32
2022-09-28T00:55:01.409Z,77.35
2022-09-28T00:57:29.331Z,77.73
2022-09-28T00:59:57.214Z,77.75
2022-09-28T01:02:24.424Z,77.69
2022-09-28T01:04:52.450Z,77.90
2022-09-28T01:07:20.017Z,77.70
2022-09-28T01:09:47.556Z,77.86
2022-09-28T01:12:14.664Z,77.93
2022-09-28T01:14:41.902Z,77.95
2022-09-28T01:17:34.591Z,77.82
2022-09-28T01:20:28.441Z,78.01
2022-09-28T01:23:28.253Z,77.78
2022-09-28T01:26:32.901Z,77.57
2022-09-28T01:29:26.271Z,78.05
2022-09-28T01:32:11.767Z,78.06
2022-09-28T01:34:44.276Z,78.11
2022-09-28T01:37:15.061Z,77.91
2022-09-28T01:39:46.099Z,78.07
2022-09-28T01:42:21.658Z,78.11
2022-09-28T01:44:51.102Z,78.27
2022-09-28T01:47:21.091Z,78.32
2022-09-28T01:49:53.169Z,78.30
2022-09-28T01:52:34.175Z,78.32
2022-09-28T01:55:35.804Z,78.51
2022-09-28T01:58:19.288Z,78.52
2022-09-28T02:00:50.545Z,78.53
2022-09-28T02:03:22.389Z,78.79
2022-09-28T02:05:59.809Z,78.13
2022-09-28T02:08:35.684Z,78.36
2022-09-28T02:11:21.511Z,78.67
2022-09-28T02:14:03.436Z,78.43
2022-09-28T02:16:43.302Z,78.99
2022-09-28T02:19:19.048Z,78.90
2022-09-28T02:22:14.234Z,78.90
2022-09-28T02:24:56.824Z,78.58
2022-09-28T02:27:29.784Z,79.00
2022-09-28T02:29:57.095Z,78.96
2022-09-28T02:32:24.681Z,79.17
2022-09-28T02:34:52.139Z,79.11
2022-09-28T02:37:19.067Z,79.47
2022-09-28T02:39:46.322Z,78.83
2022-09-28T02:42:25.800Z,79.20
2022-09-28T02:45:14.313Z,79.08
2022-09-28T02:50:44.435Z,79.40
2022-09-28T02:53:14.459Z,79.17
2022-09-28T02:56:07.441Z,79.19
2022-09-28T02:58:50.899Z,79.61
2022-09-28T03:01:36.040Z,79.45
2022-09-28T03:04:06.231Z,79.27
2022-09-28T03:06:55.028Z,79.60
2022-09-28T03:09:43.261Z,79.54
2022-09-28T03:12:12.864Z,79.39
2022-09-28T03:14:40.395Z,79.30
2022-09-28T03:17:08.663Z,79.29
2022-09-28T03:19:36.873Z,79.42
2022-09-28T03:22:05.664Z,79.21
2022-09-28T03:24:32.715Z,79.36
2022-09-28T03:26:59.646Z,79.62
2022-09-28T03:29:26.804Z,79.36
2022-09-28T03:31:59.904Z,79.38
2022-09-28T03:34:27.132Z,79.71
2022-09-28T03:36:54.484Z,79.44
2022-09-28T03:39:21.513Z,79.73
2022-09-28T03:41:48.444Z,79.42
2022-09-28T03:44:17.184Z,79.92
2022-09-28T03:46:46.754Z,79.70
2022-09-28T03:49:13.876Z,79.54
2022-09-28T03:51:40.991Z,79.92
2022-09-28T03:54:08.883Z,79.51
2022-09-28T03:56:36.605Z,79.62
2022-09-28T03:59:04.685Z,79.89
2022-09-28T04:01:31.990Z,79.75
2022-09-28T04:03:59.281Z,79.96
2022-09-28T04:06:27.263Z,79.65
2022-09-28T04:08:54.301Z,79.99
2022-09-28T04:11:21.421Z,79.99
2022-09-28T04:13:52.462Z,79.70
2022-09-28T04:16:20.053Z,80.10
2022-09-28T04:18:57.813Z,79.95
2022-09-28T04:21:48.322Z,80.34
2022-09-28T04:24:15.600Z,79.94
2022-09-28T04:26:42.556Z,79.95
2022-09-28T04:29:17.946Z,80.20
2022-09-28T04:31:55.574Z,80.05
2022-09-28T04:34:34.523Z,80.40
2022-09-28T04:37:02.874Z,80.19
2022-09-28T04:39:30.121Z,80.05
2022-09-28T04:41:57.463Z,80.39
2022-09-28T04:44:24.458Z,80.34
2022-09-28T04:46:59.734Z,80.16
2022-09-28T04:49:30.023Z,80.31
2022-09-28T04:52:18.804Z,80.34
2022-09-28T04:54:48.906Z,80.34
2022-09-28T04:57:16.656Z,80.06
2022-09-28T04:59:43.637Z,80.45
2022-09-28T05:02:12.073Z,80.11
2022-09-28T05:05:02.029Z,80.68
2022-09-28T05:07:38.045Z,80.32
2022-09-28T05:10:07.194Z,80.68
2022-09-28T05:12:34.782Z,80.29
2022-09-28T05:15:01.748Z,80.85
2022-09-28T05:17:28.943Z,80.65
2022-09-28T05:20:19.058Z,80.54
2022-09-28T05:22:46.298Z,80.89
2022-09-28T05:25:15.354Z,80.34
2022-09-28T05:28:03.395Z,80.69
2022-09-28T05:30:48.941Z,80.92
2022-09-28T05:33:51.313Z,80.70
2022-09-28T05:36:18.411Z,80.57
2022-09-28T05:38:45.977Z,80.61
2022-09-28T05:41:13.945Z,80.51
2022-09-28T05:43:41.024Z,81.00
2022-09-28T05:46:08.403Z,81.00
2022-09-28T05:48:38.490Z,80.75
2022-09-28T05:51:05.593Z,80.92
2022-09-28T05:53:32.572Z,80.89
2022-09-28T05:56:00.031Z,80.62
2022-09-28T05:58:28.349Z,80.83
2022-09-28T06:00:58.316Z,80.83
2022-09-28T06:03:25.696Z,80.67
2022-09-28T06:05:54.487Z,80.43
2022-09-28T06:08:21.644Z,80.90
2022-09-28T06:11:01.086Z,80.95
2022-09-28T06:13:29.183Z,80.79
2022-09-28T06:15:56.348Z,81.07
2022-09-28T06:18:23.750Z,80.36
2022-09-28T06:21:10.981Z,80.59
2022-09-28T06:23:48.220Z,80.92
2022-09-28T06:26:17.222Z,80.93
2022-09-28T06:28:45.159Z,80.81
2022-09-28T06:31:12.511Z,80.73
2022-09-28T06:33:48.522Z,80.61
2022-09-28T06:36:15.902Z,80.53
2022-09-28T06:38:43.020Z,80.83
2022-09-28T06:41:11.791Z,81.05
2022-09-28T06:43:40.535Z,80.71
2022-09-28T06:46:14.370Z,80.79
2022-09-28T06:48:59.661Z,80.86
2022-09-28T06:51:46.852Z,80.70
2022-09-28T06:54:32.777Z,80.86
2022-09-28T06:57:02.703Z,80.73
2022-09-28T06:59:30.272Z,80.50
2022-09-28T07:01:59.904Z,80.67
2022-09-28T07:04:59.184Z,80.65
2022-09-28T07:07:44.891Z,80.75
2022-09-28T07:10:28.703Z,80.60
2022-09-28T07:13:22.103Z,80.46
2022-09-28T07:16:05.253Z,80.70
2022-09-28T07:18:32.283Z,80.77
2022-09-28T07:20:59.805Z,80.49
2022-09-28T07:23:29.678Z,80.38
2022-09-28T07:26:19.206Z,80.65
2022-09-28T07:29:13.227Z,80.50
2022-09-28T07:31:58.692Z,80.53
2022-09-28T07:34:58.753Z,80.63
2022-09-28T07:37:46.619Z,80.72
2022-09-28T07:40:32.191Z,80.45
2022-09-28T07:43:06.363Z,80.41
2022-09-28T07:45:36.845Z,80.52
2022-09-28T07:48:04.168Z,80.51
2022-09-28T07:50:56.767Z,80.36
2022-09-28T07:53:45.932Z,80.34
2022-09-28T07:56:31.132Z,80.34
2022-09-28T07:59:18.886Z,80.51
2022-09-28T08:02:04.381Z,80.03
2022-09-28T08:04:31.729Z,80.07
2022-09-28T08:06:59.812Z,80.32
2022-09-28T08:09:26.981Z,80.34
2022-09-28T08:12:19.787Z,79.87
2022-09-28T08:15:10.461Z,80.10
2022-09-28T08:17:51.743Z,80.07
2022-09-28T08:20:39.421Z,79.96
2022-09-28T08:23:11.707Z,79.83
2022-09-28T08:25:40.561Z,79.92
2022-09-28T08:28:07.609Z,79.58
2022-09-28T08:30:41.512Z,79.87
2022-09-28T08:33:27.902Z,79.83
2022-09-28T08:36:13.811Z,79.94
2022-09-28T08:38:59.021Z,79.96
2022-09-28T08:41:43.331Z,79.73
2022-09-28T08:44:24.571Z,79.79
2022-09-28T08:47:43.711Z,79.66
2022-09-28T08:50:32.553Z,79.78
2022-09-28T08:53:36.280Z,79.69
2022-09-28T08:56:17.372Z,79.39
2022-09-28T08:58:44.880Z,79.55
2022-09-28T09:01:16.675Z,79.79
2022-09-28T09:03:45.911Z,79.61
2022-09-28T09:06:36.571Z,79.56
2022-09-28T09:09:51.226Z,79.46
2022-09-28T09:12:41.179Z,79.37
2022-09-28T09:15:47.788Z,79.29
2022-09-28T09:18:37.304Z,79.25
2022-09-28T09:21:44.566Z,79.45
2022-09-28T09:24:48.967Z,79.15
2022-09-28T09:28:07.988Z,79.40
2022-09-28T09:31:09.332Z,79.17
2022-09-28T09:34:01.211Z,79.07
2022-09-28T09:37:17.222Z,79.31
2022-09-28T09:40:11.210Z,79.03
2022-09-28T09:43:27.934Z,78.83
2022-09-28T09:46:38.132Z,78.92
2022-09-28T09:49:24.995Z,78.88
2022-09-28T09:52:15.404Z,78.91
2022-09-28T09:54:57.804Z,78.81
2022-09-28T09:57:53.410Z,78.87
2022-09-28T10:00:46.070Z,78.77
2022-09-28T10:03:26.437Z,78.87
2022-09-28T10:06:07.267Z,78.68
2022-09-28T10:08:38.017Z,78.44
2022-09-28T10:11:38.759Z,78.32
2022-09-28T10:14:21.582Z,78.33
2022-09-28T10:16:57.357Z,77.97
2022-09-28T10:19:44.881Z,78.31
2022-09-28T10:22:31.712Z,78.19
2022-09-28T10:25:01.424Z,78.11
2022-09-28T10:27:32.063Z,77.87
2022-09-28T10:30:11.802Z,78.08
2022-09-28T10:32:41.795Z,77.88
2022-09-28T10:35:18.755Z,77.76
2022-09-28T10:38:00.251Z,77.77
2022-09-28T10:40:56.404Z,77.77
2022-09-28T10:44:08.819Z,77.58
2022-09-28T10:46:56.629Z,77.62
2022-09-28T10:49:24.491Z,77.48
2022-09-28T10:51:56.691Z,77.13
2022-09-28T10:54:29.665Z,77.26
2022-09-28T10:56:59.667Z,77.21
2022-09-28T10:59:41.136Z,76.84
2022-09-28T11:02:24.481Z,77.04
2022-09-28T11:05:00.341Z,76.86
2022-09-28T11:07:33.772Z,76.81
2022-09-28T11:10:01.786Z,76.81
2022-09-28T11:12:39.721Z,76.70
2022-09-28T11:15:08.019Z,76.53
2022-09-28T11:17:41.655Z,76.37
2022-09-28T11:20:33.111Z,76.59
2022-09-28T11:23:08.322Z,76.16
2022-09-28T11:25:39.701Z,76.22
2022-09-28T11:28:06.943Z,75.83
2022-09-28T11:30:40.725Z,75.81
2022-09-28T11:33:33.601Z,75.61
2022-09-28T11:36:47.131Z,75.57
2022-09-28T11:39:38.795Z,75.23
2022-09-28T11:42:35.054Z,75.35
2022-09-28T11:45:37.138Z,75.25
2022-09-28T11:48:07.531Z,74.90
2022-09-28T11:50:55.953Z,74.88
2022-09-28T11:53:48.934Z,74.76
2022-09-28T11:56:34.912Z,74.56
2022-09-28T11:59:14.952Z,74.54
2022-09-28T12:01:57.398Z,74.05
2022-09-28T12:04:48.972Z,73.92
2022-09-28T12:07:23.367Z,73.48
2022-09-28T12:09:55.643Z,73.35
2022-09-28T12:12:25.041Z,72.93
2022-09-28T12:14:57.598Z,72.79
2022-09-28T12:17:42.866Z,72.46
2022-09-28T12:20:54.881Z,72.35
2022-09-28T12:23:31.552Z,71.95
2022-09-28T12:26:03.824Z,71.92
2022-09-28T12:28:35.423Z,71.55
2022-09-28T12:31:12.884Z,71.08
2022-09-28T12:33:42.113Z,70.82
2022-09-28T12:36:30.590Z,70.78
2022-09-28T12:39:30.702Z,70.37
2022-09-28T12:42:32.101Z,70.04
2022-09-28T12:45:02.409Z,69.91
2022-09-28T12:47:46.131Z,69.81
2022-09-28T12:50:38.145Z,69.63
2022-09-28T12:53:08.172Z,69.32
2022-09-28T12:55:51.212Z,69.14
2022-09-28T12:59:00.129Z,68.69
2022-09-28T13:01:40.127Z,68.72
2022-09-28T13:04:44.780Z,68.62
2022-09-28T13:07:23.459Z,68.42
2022-09-28T13:09:55.787Z,68.27
2022-09-28T13:12:25.911Z,67.98
2022-09-28T13:14:58.632Z,67.90
2022-09-28T13:17:50.614Z,67.29
2022-09-28T13:20:35.889Z,67.49
2022-09-28T13:23:08.858Z,66.95
2022-09-28T13:25:37.435Z,66.84
2022-09-28T13:28:05.890Z,66.75
2022-09-28T13:30:35.804Z,66.50
2022-09-28T13:33:04.501Z,66.80
2022-09-28T13:35:33.425Z,66.57
2022-09-28T13:38:18.750Z,66.45
2022-09-28T13:41:09.984Z,66.39
2022-09-28T13:43:57.932Z,66.51
2022-09-28T13:46:43.371Z,66.30
2022-09-28T13:49:17.285Z,66.50
2022-09-28T13:52:02.974Z,66.43
2022-09-28T13:55:06.675Z,65.97
2022-09-28T13:57:51.559Z,66.10
2022-09-28T14:00:37.322Z,66.12
2022-09-28T14:03:19.717Z,66.07
2022-09-28T14:05:49.641Z,65.83
2022-09-28T14:08:38.508Z,65.87
2022-09-28T14:11:27.101Z,65.85
2022-09-28T14:14:16.225Z,65.80
2022-09-28T14:16:43.957Z,65.90
2022-09-28T14:19:26.706Z,65.79
2022-09-28T14:22:00.627Z,66.10
2022-09-28T14:25:05.152Z,65.68
2022-09-28T14:27:37.979Z,66.15
2022-09-28T14:30:19.692Z,65.76
2022-09-28T14:32:54.896Z,65.91
2022-09-28T14:35:40.842Z,66.04
2022-09-28T14:38:36.499Z,66.26
2022-09-28T14:41:13.785Z,66.06
2022-09-28T14:43:46.751Z,66.24
2022-09-28T14:46:26.161Z,65.92
2022-09-28T14:48:55.176Z,65.93
2022-09-28T14:51:25.574Z,65.99
2022-09-28T14:54:12.965Z,66.15
2022-09-28T14:56:47.748Z,66.07
2022-09-28T14:59:18.326Z,66.38
2022-09-28T15:02:02.693Z,66.02
2022-09-28T15:04:31.249Z,66.13
2022-09-28T15:06:58.284Z,66.13
2022-09-28T15:09:43.790Z,66.21
2022-09-28T15:12:12.261Z,66.62
2022-09-28T15:14:54.097Z,66.40
2022-09-28T15:17:27.565Z,66.11
2022-09-28T15:20:01.543Z,66.47
2022-09-28T15:22:30.483Z,66.24
2022-09-28T15:25:02.362Z,66.07
2022-09-28T15:27:37.789Z,66.06
2022-09-28T15:30:28.819Z,66.23
2022-09-28T15:33:17.200Z,66.06
2022-09-28T15:36:07.932Z,66.16
2022-09-28T15:38:35.231Z,66.46
2022-09-28T15:41:06.718Z,66.24
2022-09-28T15:43:36.851Z,66.54
2022-09-28T15:46:21.280Z,66.48
2022-09-28T15:48:56.589Z,66.54
2022-09-28T15:51:24.841Z,66.52
2022-09-28T15:53:58.250Z,66.42
2022-09-28T15:56:26.393Z,66.45
2022-09-28T15:59:15.182Z,66.57
2022-09-28T16:01:45.945Z,66.57
2022-09-28T16:04:39.561Z,66.55
2022-09-28T16:07:29.341Z,66.69
2022-09-28T16:10:02.431Z,66.59
2022-09-28T16:13:06.396Z,66.81
2022-09-28T16:15:35.555Z,66.74
2022-09-28T16:18:20.902Z,66.80
2022-09-28T16:20:56.306Z,67.25
2022-09-28T16:23:31.345Z,67.06
2022-09-28T16:26:37.526Z,67.07
2022-09-28T16:29:40.309Z,67.39
2022-09-28T16:32:26.029Z,67.70
2022-09-28T16:35:17.515Z,67.77
2022-09-28T16:37:48.782Z,67.80
2022-09-28T16:40:15.871Z,68.01
2022-09-28T16:42:48.921Z,68.08
2022-09-28T16:45:23.914Z,68.09
2022-09-28T16:47:53.145Z,68.32
2022-09-28T16:50:21.802Z,68.47
2022-09-28T16:53:31.486Z,68.57
2022-09-28T16:55:59.156Z,68.73
2022-09-28T16:58:27.451Z,69.05
2022-09-28T17:00:55.150Z,69.35
2022-09-28T17:03:23.801Z,69.28
2022-09-28T17:05:51.821Z,69.05
2022-09-28T17:08:20.514Z,69.39
2022-09-28T17:13:39.942Z,70.00
2022-09-28T17:16:11.744Z,70.08
2022-09-28T17:18:39.907Z,69.92
2022-09-28T17:21:11.848Z,70.34
2022-09-28T17:23:38.956Z,70.56
2022-09-28T17:26:06.082Z,70.77
2022-09-28T17:28:37.049Z,70.60
2022-09-28T17:31:04.956Z,71.36
2022-09-28T17:33:32.103Z,71.14
2022-09-28T17:36:04.886Z,71.16
2022-09-28T17:38:32.601Z,71.21
2022-09-28T17:40:59.734Z,71.57
2022-09-28T17:43:26.782Z,71.96
2022-09-28T17:45:53.726Z,71.89
2022-09-28T17:48:24.429Z,71.73
2022-09-28T17:50:51.591Z,71.92
2022-09-28T17:53:18.488Z,72.40
2022-09-28T17:55:45.574Z,72.76
2022-09-28T17:58:18.507Z,72.37
2022-09-28T18:00:50.745Z,72.47
2022-09-28T18:03:20.197Z,72.73
2022-09-28T18:05:49.849Z,72.57
2022-09-28T18:08:21.447Z,73.07
2022-09-28T18:10:49.972Z,73.07
2022-09-28T18:13:16.920Z,73.14
2022-09-28T18:15:43.883Z,73.36
2022-09-28T18:18:13.345Z,73.36
2022-09-28T18:20:41.671Z,73.50
2022-09-28T18:23:08.855Z,73.68
2022-09-28T18:25:44.561Z,73.68
2022-09-28T18:28:12.893Z,73.78
2022-09-28T18:30:41.779Z,73.96
2022-09-28T18:33:09.162Z,74.18
2022-09-28T18:35:36.637Z,74.17
2022-09-28T18:38:05.520Z,74.37
2022-09-28T18:40:36.023Z,74.35
2022-09-28T18:43:03.901Z,74.49
2022-09-28T18:45:31.224Z,74.48
2022-09-28T18:47:59.962Z,74.44
2022-09-28T18:50:27.032Z,74.73
2022-09-28T18:52:54.093Z,74.88
2022-09-28T18:55:21.251Z,74.97
2022-09-28T18:57:48.224Z,74.73
2022-09-28T19:00:15.487Z,75.12
2022-09-28T19:02:43.247Z,75.49
2022-09-28T19:05:10.321Z,75.55
2022-09-28T19:07:37.577Z,75.33
2022-09-28T19:10:05.231Z,75.40
2022-09-28T19:12:33.009Z,75.65
2022-09-28T19:15:00.026Z,75.61
2022-09-28T19:17:36.953Z,75.91
2022-09-28T19:20:04.666Z,76.12
2022-09-28T19:22:31.944Z,75.91
2022-09-28T19:24:59.132Z,76.18
2022-09-28T19:27:26.362Z,76.12
2022-09-28T19:29:53.761Z,76.29
2022-09-28T19:32:21.097Z,76.05
2022-09-28T19:34:48.635Z,76.61
2022-09-28T19:37:16.144Z,76.27
2022-09-28T19:39:43.511Z,76.66
2022-09-28T19:42:10.751Z,76.72
2022-09-28T19:44:39.587Z,76.55
2022-09-28T19:47:09.029Z,76.66
2022-09-28T19:49:38.762Z,76.92
2022-09-28T19:52:17.285Z,76.71
2022-09-28T19:54:57.045Z,76.87
2022-09-28T19:57:27.977Z,76.80
2022-09-28T20:00:01.669Z,77.32
2022-09-28T20:02:33.818Z,77.04
2022-09-28T20:05:01.013Z,77.19
2022-09-28T20:07:28.382Z,77.21
2022-09-28T20:09:55.385Z,77.19
2022-09-28T20:12:22.550Z,77.14
2022-09-28T20:14:49.614Z,77.36
2022-09-28T20:17:16.610Z,77.46
2022-09-28T20:19:43.745Z,77.25
2022-09-28T20:22:12.234Z,77.64
2022-09-28T20:24:39.307Z,77.73
2022-09-28T20:27:06.802Z,77.45
2022-09-28T20:29:34.796Z,77.43
2022-09-28T20:32:04.174Z,77.50
2022-09-28T20:34:31.761Z,77.86
2022-09-28T20:36:58.738Z,77.52
2022-09-28T20:39:26.151Z,78.06
2022-09-28T20:41:53.781Z,77.64
2022-09-28T20:44:21.239Z,77.71
2022-09-28T20:46:51.427Z,78.09
2022-09-28T20:49:18.603Z,78.07
2022-09-28T20:51:45.793Z,77.99
2022-09-28T20:54:12.929Z,78.08
2022-09-28T20:56:39.915Z,78.07
2022-09-28T20:59:11.902Z,78.05
2022-09-28T21:01:39.209Z,78.23
2022-09-28T21:04:07.415Z,78.31
2022-09-28T21:06:39.352Z,78.40
2022-09-28T21:09:07.004Z,78.57
2022-09-28T21:11:35.826Z,78.55
2022-09-28T21:14:05.261Z,78.16
2022-09-28T21:16:34.261Z,78.52
2022-09-28T21:19:01.495Z,78.58
2022-09-28T21:21:28.608Z,78.27
2022-09-28T21:23:56.813Z,78.41
2022-09-28T21:26:26.055Z,78.38
2022-09-28T21:28:58.239Z,78.54
2022-09-28T21:31:29.412Z,78.65
2022-09-28T21:33:57.816Z,78.62
2022-09-28T21:36:25.685Z,78.86
2022-09-28T21:38:54.314Z,78.37
2022-09-28T21:41:21.453Z,78.66
2022-09-28T21:43:48.365Z,78.78
2022-09-28T21:46:15.454Z,78.95
2022-09-28T21:48:42.430Z,78.64
2022-09-28T21:51:12.882Z,78.94
2022-09-28T21:53:39.857Z,78.83
2022-09-28T21:56:09.939Z,78.95
2022-09-28T21:58:37.176Z,79.14
2022-09-28T22:01:11.083Z,79.25
2022-09-28T22:03:38.184Z,78.91
2022-09-28T22:06:06.024Z,79.27
2022-09-28T22:08:34.021Z,79.00
2022-09-28T22:11:02.778Z,79.28
2022-09-28T22:13:31.381Z,79.12
2022-09-28T22:15:58.999Z,79.16
2022-09-28T22:18:27.783Z,79.05
2022-09-28T22:21:09.876Z,79.49
2022-09-28T22:23:37.294Z,79.01
2022-09-28T22:26:19.130Z,79.09
2022-09-28T22:28:50.672Z,79.50
2022-09-28T22:31:19.387Z,79.17
2022-09-28T22:33:46.529Z,79.22
2022-09-28T22:36:16.700Z,79.37
2022-09-28T22:38:44.830Z,79.28
2022-09-28T22:41:12.205Z,79.58
2022-09-28T22:43:39.198Z,79.70
2022-09-28T22:46:06.319Z,79.53
2022-09-28T22:48:34.471Z,79.58
2022-09-28T22:51:02.356Z,79.79
2022-09-28T22:53:29.618Z,79.37
2022-09-28T22:55:57.986Z,79.77
2022-09-28T22:58:25.035Z,79.81
2022-09-28T23:00:52.426Z,79.96
2022-09-28T23:03:19.406Z,79.61
2022-09-28T23:05:54.387Z,79.54
2022-09-28T23:08:22.382Z,79.73
2022-09-28T23:10:49.844Z,79.86
2022-09-28T23:13:16.999Z,79.52
2022-09-28T23:15:43.921Z,80.03
2022-09-28T23:18:11.166Z,79.74
2022-09-28T23:20:38.329Z,80.02
2022-09-28T23:23:05.682Z,80.14
2022-09-28T23:25:32.740Z,79.40
2022-09-28T23:27:59.901Z,79.64
2022-09-28T23:30:27.061Z,80.10
2022-09-28T23:32:54.042Z,80.10
2022-09-28T23:35:21.143Z,79.77
2022-09-28T23:37:51.786Z,79.69
2022-09-28T23:40:19.105Z,79.81
2022-09-28T23:42:46.064Z,80.14
2022-09-28T23:45:13.233Z,80.41
2022-09-28T23:47:40.290Z,80.01
2022-09-28T23:50:08.123Z,79.81
2022-09-28T23:52:35.443Z,80.43
2022-09-28T23:55:02.542Z,79.92
2022-09-28T23:57:29.570Z,80.48
2022-09-28T23:59:56.534Z,80.41
